createdAt,value
2017-10-25T00:00:17.636Z,3.7
2017-10-25T00:02:17.609Z,3.1
2017-10-25T00:04:17.551Z,3.1
2017-10-25T00:06:17.511Z,3.4
2017-10-25T00:08:17.471Z,3.5
2017-10-25T00:10:17.439Z,3.2
2017-10-25T00:12:17.398Z,3.8
2017-10-25T00:14:17.356Z,3.6
2017-10-25T00:16:18.317Z,3.7
2017-10-25T00:18:17.274Z,3.5
2017-10-25T00:20:17.217Z,3.5
2017-10-25T00:22:17.192Z,3.1
2017-10-25T00:24:17.163Z,3.3
2017-10-25T00:26:17.116Z,3.5
2017-10-25T00:28:17.091Z,3.7
2017-10-25T00:30:17.059Z,4.2
2017-10-25T00:32:17.012Z,3.6
2017-10-25T00:34:16.951Z,4.4
2017-10-25T00:36:16.898Z,4
2017-10-25T00:38:16.853Z,3.8
2017-10-25T00:40:17.812Z,4.2
2017-10-25T00:42:16.792Z,4.2
2017-10-25T00:44:16.734Z,4.2
2017-10-25T00:46:17.690Z,4.6
2017-10-25T00:48:17.628Z,4.4
2017-10-25T00:50:17.591Z,4.8
2017-10-25T00:52:17.523Z,4.7
2017-10-25T00:54:17.478Z,4.1
2017-10-25T00:56:17.444Z,4.6
2017-10-25T00:58:17.400Z,4.3
2017-10-25T01:00:17.354Z,4.9
2017-10-25T01:02:17.294Z,4.6
2017-10-25T01:04:17.261Z,4.6
2017-10-25T01:06:17.228Z,4.5
2017-10-25T01:08:17.186Z,5
2017-10-25T01:10:18.126Z,4.7
2017-10-25T01:12:17.112Z,4.9
2017-10-25T01:14:17.066Z,4.7
2017-10-25T01:16:17.023Z,5
2017-10-25T01:18:16.979Z,5.1
2017-10-25T01:20:16.934Z,4.5
2017-10-25T01:22:16.892Z,4.7
2017-10-25T01:24:16.845Z,4.3
2017-10-25T01:26:17.818Z,4.9
2017-10-25T01:28:16.784Z,4.3
2017-10-25T01:30:16.746Z,4.3
2017-10-25T01:32:16.709Z,4.7
2017-10-25T01:34:17.663Z,4.6
2017-10-25T01:36:17.615Z,4.5
2017-10-25T01:38:17.559Z,5.4
2017-10-25T01:40:17.520Z,4.7
2017-10-25T01:42:17.493Z,4.5
2017-10-25T01:44:17.438Z,5
2017-10-25T01:46:18.398Z,4.8
2017-10-25T01:48:17.359Z,4.9
2017-10-25T01:50:17.304Z,4.7
2017-10-25T01:52:17.293Z,4.8
2017-10-25T01:54:17.240Z,4.6
2017-10-25T01:56:17.249Z,4.5
2017-10-25T01:58:17.176Z,5.4
2017-10-25T02:00:17.154Z,4.6
2017-10-25T02:02:17.099Z,5.2
2017-10-25T02:04:17.072Z,4.8
2017-10-25T02:06:18.041Z,5.2
2017-10-25T02:08:16.998Z,4.6
2017-10-25T02:12:17.906Z,5.6
2017-10-25T02:14:16.879Z,4.8
2017-10-25T02:16:17.873Z,4.6
2017-10-25T02:18:16.836Z,5
2017-10-25T02:20:16.797Z,5
2017-10-25T02:22:16.781Z,4.8
2017-10-25T02:24:16.755Z,5
2017-10-25T02:26:17.705Z,5
2017-10-25T02:28:17.681Z,5.1
2017-10-25T02:30:17.642Z,5.1
2017-10-25T02:32:17.613Z,4.8
2017-10-25T02:34:17.571Z,5.2
2017-10-25T02:40:17.467Z,5.6
2017-10-25T02:42:17.435Z,4.9
2017-10-25T02:44:17.386Z,4.9
2017-10-25T02:46:17.357Z,5.7
2017-10-25T02:48:17.313Z,4.7
2017-10-25T02:50:17.265Z,4.9
2017-10-25T02:52:17.235Z,4.6
2017-10-25T02:54:17.216Z,4.6
2017-10-25T02:56:18.165Z,4.3
2017-10-25T02:58:17.122Z,5
2017-10-25T03:00:17.107Z,5.2
2017-10-25T03:02:17.059Z,4.7
2017-10-25T03:04:17.057Z,4.5
2017-10-25T03:06:18.016Z,5.3
2017-10-25T03:08:17.009Z,4.8
2017-10-25T03:10:17.957Z,4.6
2017-10-25T03:12:16.943Z,4.9
2017-10-25T03:14:16.893Z,4.9
2017-10-25T03:16:17.857Z,5.1
2017-10-25T03:18:16.845Z,4.9
2017-10-25T03:20:16.804Z,5.2
2017-10-25T03:22:16.793Z,5.1
2017-10-25T03:24:16.750Z,5.5
2017-10-25T03:26:17.692Z,5.2
2017-10-25T03:28:17.654Z,5.1
2017-10-25T03:30:17.636Z,4.8
2017-10-25T03:32:17.595Z,4.9
2017-10-25T03:34:17.588Z,5.2
2017-10-25T03:36:17.549Z,4.9
2017-10-25T03:38:17.507Z,5.2
2017-10-25T03:40:17.468Z,5.6
2017-10-25T03:42:17.455Z,5.8
2017-10-25T03:44:17.406Z,4.8
2017-10-25T03:46:18.384Z,5.4
2017-10-25T03:48:17.361Z,5.5
2017-10-25T03:50:17.344Z,5.4
2017-10-25T03:52:17.293Z,5.7
2017-10-25T03:54:17.253Z,5.5
2017-10-25T03:56:17.214Z,5.6
2017-10-25T03:58:17.190Z,5.7
2017-10-25T04:00:17.188Z,5.2
2017-10-25T04:02:17.136Z,5.1
2017-10-25T04:04:17.123Z,5.9
2017-10-25T04:06:17.096Z,5.4
2017-10-25T04:08:17.053Z,5.1
2017-10-25T04:10:18.030Z,4.7
2017-10-25T04:12:16.993Z,5.6
2017-10-25T04:14:16.972Z,6
2017-10-25T04:16:17.934Z,5.8
2017-10-25T04:18:16.886Z,6.4
2017-10-25T04:20:16.872Z,5.8
2017-10-25T04:22:16.846Z,5.4
2017-10-25T04:24:16.802Z,5.3
2017-10-25T04:26:17.751Z,5.4
2017-10-25T04:28:16.727Z,5.5
2017-10-25T04:30:17.682Z,6.1
2017-10-25T04:32:17.651Z,6
2017-10-25T04:34:17.612Z,6.2
2017-10-25T04:36:17.588Z,5.5
2017-10-25T04:38:17.538Z,5.5
2017-10-25T04:40:17.490Z,5.6
2017-10-25T04:42:17.440Z,5.1
2017-10-25T04:44:17.429Z,5.8
2017-10-25T04:46:17.382Z,5.6
2017-10-25T04:48:17.338Z,6
2017-10-25T04:50:17.317Z,5.1
2017-10-25T04:52:17.259Z,5.7
2017-10-25T04:54:17.251Z,5.2
2017-10-25T04:56:18.192Z,5.9
2017-10-25T04:58:17.151Z,5.9
2017-10-25T05:00:17.097Z,5.5
2017-10-25T05:02:17.037Z,5.7
2017-10-25T05:04:17.013Z,6.9
2017-10-25T05:06:17.969Z,5.8
2017-10-25T05:08:16.927Z,5.1
2017-10-25T05:10:17.881Z,5.8
2017-10-25T05:12:16.841Z,5.7
2017-10-25T05:14:16.799Z,6
2017-10-25T05:16:17.749Z,5.7
2017-10-25T05:18:16.691Z,5.9
2017-10-25T05:20:17.679Z,6
2017-10-25T05:22:17.629Z,5.4
2017-10-25T05:24:17.603Z,5.2
2017-10-25T05:26:17.559Z,5.8
2017-10-25T05:28:17.512Z,5.5
2017-10-25T05:30:17.485Z,6
2017-10-25T05:32:17.448Z,5.2
2017-10-25T05:34:17.402Z,5.4
2017-10-25T05:36:17.391Z,5.5
2017-10-25T05:38:17.342Z,5.7
2017-10-25T05:40:17.286Z,4.9
2017-10-25T05:42:17.258Z,5.8
2017-10-25T05:44:17.204Z,5.9
2017-10-25T05:46:17.158Z,5.8
2017-10-25T05:48:17.114Z,5.2
2017-10-25T05:50:17.052Z,5.7
2017-10-25T05:52:17.028Z,5.4
2017-10-25T05:54:16.963Z,5.7
2017-10-25T05:56:16.930Z,5
2017-10-25T05:58:16.904Z,6.1
2017-10-25T06:00:16.861Z,5.5
2017-10-25T06:02:16.836Z,5.3
2017-10-25T06:04:16.788Z,4.9
2017-10-25T06:06:17.752Z,5.7
2017-10-25T06:08:16.739Z,5.5
2017-10-25T06:10:17.707Z,5.1
2017-10-25T06:12:17.650Z,5.6
2017-10-25T06:14:17.624Z,5.8
2017-10-25T06:16:17.580Z,5.8
2017-10-25T06:18:17.572Z,4.9
2017-10-25T06:20:17.545Z,5.6
2017-10-25T06:22:17.501Z,5.4
2017-10-25T06:24:17.489Z,5.4
2017-10-25T06:26:17.450Z,5.1
2017-10-25T06:28:17.396Z,4.9
2017-10-25T06:30:17.375Z,5.4
2017-10-25T06:32:17.333Z,5.4
2017-10-25T06:34:17.264Z,5.6
2017-10-25T06:36:18.232Z,4.8
2017-10-25T06:38:17.205Z,5.2
2017-10-25T06:40:18.203Z,4.5
2017-10-25T06:42:17.172Z,5.5
2017-10-25T06:44:17.104Z,4.9
2017-10-25T06:46:17.092Z,4.7
2017-10-25T06:48:17.058Z,4.7
2017-10-25T06:50:17.012Z,4.8
2017-10-25T06:52:16.985Z,4.3
2017-10-25T06:54:16.961Z,4.7
2017-10-25T06:56:17.920Z,4.9
2017-10-25T06:58:16.903Z,5.5
2017-10-25T07:00:16.870Z,4.7
2017-10-25T07:02:16.838Z,4.5
2017-10-25T07:04:16.815Z,4.3
2017-10-25T07:06:17.771Z,4.5
2017-10-25T07:08:16.759Z,4.6
2017-10-25T07:10:17.734Z,4.5
2017-10-25T07:12:16.733Z,4.1
2017-10-25T07:14:16.689Z,4
2017-10-25T07:16:16.671Z,4.1
2017-10-25T07:18:16.631Z,3.6
2017-10-25T07:22:17.590Z,4
2017-10-25T07:24:17.578Z,4.2
2017-10-25T07:26:17.567Z,3.8
2017-10-25T07:28:17.544Z,4
2017-10-25T07:30:18.518Z,4
2017-10-25T07:32:17.513Z,5.3
2017-10-25T07:34:17.501Z,3.9
2017-10-25T07:36:17.468Z,3.6
2017-10-25T07:38:17.432Z,4.2
2017-10-25T07:40:17.442Z,3.7
2017-10-25T07:42:17.418Z,4.1
2017-10-25T07:44:17.392Z,4.1
2017-10-25T07:46:17.394Z,3.6
2017-10-25T07:48:17.379Z,3.9
2017-10-25T07:50:17.358Z,3.9
2017-10-25T07:52:17.345Z,4.2
2017-10-25T07:54:17.324Z,3.7
2017-10-25T07:56:18.314Z,3.9
2017-10-25T07:58:17.306Z,3.4
2017-10-25T08:00:17.303Z,3.5
2017-10-25T08:02:17.256Z,3.5
2017-10-25T08:04:17.263Z,3.2
2017-10-25T08:06:17.254Z,3.4
2017-10-25T08:08:17.253Z,4
2017-10-25T08:10:17.230Z,3.2
2017-10-25T08:12:17.220Z,3.3
2017-10-25T08:14:17.200Z,3.2
2017-10-25T08:16:17.223Z,3.2
2017-10-25T08:18:17.220Z,3.4
2017-10-25T08:20:17.213Z,3.2
2017-10-25T08:22:17.198Z,3.2
2017-10-25T08:24:17.202Z,3.3
2017-10-25T08:26:18.203Z,3.8
2017-10-25T08:28:17.184Z,3.3
2017-10-25T08:30:17.173Z,3.1
2017-10-25T08:32:17.161Z,2.9
2017-10-25T08:34:17.142Z,3.5
2017-10-25T08:36:18.142Z,4.5
2017-10-25T08:38:17.135Z,3.2
2017-10-25T08:40:18.123Z,3.2
2017-10-25T08:42:17.186Z,3.2
2017-10-25T08:44:17.129Z,3.2
2017-10-25T08:46:18.142Z,3.6
2017-10-25T08:48:17.125Z,3.5
2017-10-25T08:50:17.082Z,3.8
2017-10-25T08:52:17.057Z,3.5
2017-10-25T08:54:17.066Z,3.3
2017-10-25T08:56:18.037Z,2.8
2017-10-25T08:58:17.026Z,2.9
2017-10-25T09:00:17.038Z,3.5
2017-10-25T09:02:17.034Z,4.1
2017-10-25T09:04:17.024Z,3.6
2017-10-25T09:06:17.018Z,3.8
2017-10-25T09:08:17.033Z,3.5
2017-10-25T09:10:18.023Z,3.2
2017-10-25T09:12:17.014Z,3
2017-10-25T09:14:17.020Z,3.3
2017-10-25T09:16:18.018Z,3.4
2017-10-25T09:18:17.015Z,3.4
2017-10-25T09:20:17.022Z,3.6
2017-10-25T09:22:17.018Z,3.1
2017-10-25T09:24:17.019Z,3.1
2017-10-25T09:26:17.020Z,3.2
2017-10-25T09:28:17.041Z,2.6
2017-10-25T09:30:17.051Z,3.2
2017-10-25T09:32:17.052Z,2.4
2017-10-25T09:34:17.059Z,2.3
2017-10-25T09:38:18.073Z,2.7
2017-10-25T09:40:18.069Z,2.4
2017-10-25T09:42:17.105Z,2.7
2017-10-25T09:44:17.084Z,2.5
2017-10-25T09:46:18.094Z,2.7
2017-10-25T09:48:17.118Z,2.4
2017-10-25T09:50:17.143Z,2.4
2017-10-25T09:52:17.138Z,3.3
2017-10-25T09:54:17.146Z,2.5
2017-10-25T09:56:18.159Z,2.3
2017-10-25T09:58:17.159Z,2.7
2017-10-25T10:00:17.159Z,2.1
2017-10-25T10:02:17.148Z,2.5
2017-10-25T10:04:17.161Z,2.2
2017-10-25T10:06:18.168Z,2.4
2017-10-25T10:08:17.170Z,2.2
2017-10-25T10:10:18.182Z,2.3
2017-10-25T10:12:17.196Z,2.3
2017-10-25T10:14:17.188Z,2.5
2017-10-25T10:16:18.200Z,2.4
2017-10-25T10:18:17.210Z,2.6
2017-10-25T10:20:17.217Z,2.2
2017-10-25T10:22:17.256Z,2.4
2017-10-25T10:24:17.237Z,2.2
2017-10-25T10:26:17.257Z,1.8
2017-10-25T10:28:17.296Z,1.7
2017-10-25T10:30:17.289Z,1.7
2017-10-25T10:32:17.344Z,1.8
2017-10-25T10:34:17.350Z,2.1
2017-10-25T10:36:18.397Z,1.7
2017-10-25T10:38:17.444Z,1.4
2017-10-25T10:40:17.460Z,1.7
2017-10-25T10:42:17.473Z,1.4
2017-10-25T10:44:17.499Z,1.6
2017-10-25T10:46:17.521Z,1.6
2017-10-25T10:48:17.582Z,1.6
2017-10-25T10:50:17.597Z,1.6
2017-10-25T10:52:17.631Z,1.2
2017-10-25T10:54:17.657Z,1.3
2017-10-25T10:56:17.693Z,1.2
2017-10-25T10:58:17.718Z,1
2017-10-25T11:00:17.764Z,1.3
2017-10-25T11:02:16.778Z,0.9
2017-10-25T11:04:16.815Z,0.9
2017-10-25T11:06:17.849Z,0.6
2017-10-25T11:08:16.874Z,1.1
2017-10-25T11:10:17.915Z,0.7
2017-10-25T11:12:16.950Z,1.1
2017-10-25T11:14:16.967Z,0.9
2017-10-25T11:16:18.007Z,1.1
2017-10-25T11:18:17.041Z,0.9
2017-10-25T11:20:17.081Z,0.8
2017-10-25T11:22:17.112Z,0.9
2017-10-25T11:24:17.181Z,0.7
2017-10-25T11:26:17.181Z,0.7
2017-10-25T11:28:17.200Z,0.7
2017-10-25T11:30:17.244Z,0.8
2017-10-25T11:32:17.282Z,0.5
2017-10-25T11:34:17.315Z,0.6
2017-10-25T11:36:17.359Z,0.8
2017-10-25T11:38:17.400Z,0.6
2017-10-25T11:40:17.450Z,0.6
2017-10-25T11:42:17.482Z,0.6
2017-10-25T11:44:17.539Z,0.6
2017-10-25T11:46:17.589Z,0.4
2017-10-25T11:48:17.613Z,0.6
2017-10-25T11:50:17.643Z,0.4
2017-10-25T11:52:17.676Z,0.5
2017-10-25T11:54:17.745Z,0.4
2017-10-25T11:56:17.781Z,0.6
2017-10-25T11:58:16.812Z,0.4
2017-10-25T12:00:16.840Z,0.4
2017-10-25T12:02:16.887Z,0.7
2017-10-25T12:04:16.876Z,0.5
2017-10-25T12:06:17.906Z,0.4
2017-10-25T12:08:16.937Z,0.5
2017-10-25T12:10:17.965Z,0.4
2017-10-25T12:12:17.022Z,0.6
2017-10-25T12:14:17.063Z,0.4
2017-10-25T12:16:18.126Z,0.4
2017-10-25T12:18:17.133Z,0.4
2017-10-25T12:20:17.456Z,0.5
2017-10-25T12:22:18.233Z,0.5
2017-10-25T12:24:17.245Z,0.4
2017-10-25T12:26:17.287Z,0.4
2017-10-25T12:28:17.354Z,0.5
2017-10-25T12:30:17.390Z,0.6
2017-10-25T12:32:17.416Z,0.5
2017-10-25T12:34:17.458Z,0.4
2017-10-25T12:36:17.490Z,0.7
2017-10-25T12:38:17.522Z,0.7
2017-10-25T12:40:17.561Z,0.5
2017-10-25T12:42:17.611Z,0.6
2017-10-25T12:44:17.635Z,0.6
2017-10-25T12:46:17.673Z,0.5
2017-10-25T12:48:17.697Z,0.6
2017-10-25T12:50:17.740Z,0.7
2017-10-25T12:52:16.785Z,0.8
2017-10-25T12:54:16.873Z,0.6
2017-10-25T12:56:17.886Z,0.6
2017-10-25T12:58:16.930Z,0.5
2017-10-25T13:00:16.998Z,0.5
2017-10-25T13:02:17.052Z,0.6
2017-10-25T13:04:17.093Z,0.6
2017-10-25T13:06:18.161Z,0.7
2017-10-25T13:08:17.187Z,0.5
2017-10-25T13:10:18.235Z,0.7
2017-10-25T13:12:17.249Z,0.7
2017-10-25T13:14:17.301Z,0.6
2017-10-25T13:16:18.334Z,0.7
2017-10-25T13:18:17.382Z,0.6
2017-10-25T13:20:17.406Z,0.9
2017-10-25T13:22:17.468Z,0.7
2017-10-25T13:24:17.489Z,0.7
2017-10-25T13:26:17.514Z,0.7
2017-10-25T13:28:17.546Z,0.8
2017-10-25T13:30:17.598Z,0.8
2017-10-25T13:32:17.641Z,0.9
2017-10-25T13:34:17.689Z,0.8
2017-10-25T13:36:17.727Z,1
2017-10-25T13:38:16.739Z,0.9
2017-10-25T13:40:17.762Z,0.9
2017-10-25T13:42:16.791Z,1.1
2017-10-25T13:44:16.820Z,1.3
2017-10-25T13:46:17.850Z,1.1
2017-10-25T13:48:16.859Z,0.8
2017-10-25T13:50:16.870Z,1.3
2017-10-25T13:52:16.915Z,1
2017-10-25T13:54:16.924Z,1.3
2017-10-25T13:56:17.957Z,1.5
2017-10-25T13:58:16.993Z,1
2017-10-25T14:00:17.013Z,1.2
2017-10-25T14:02:17.040Z,1.5
2017-10-25T14:04:17.046Z,1.3
2017-10-25T14:06:18.097Z,1.6
2017-10-25T14:08:17.104Z,1.1
2017-10-25T14:10:18.117Z,1.4
2017-10-25T14:12:17.115Z,1.3
2017-10-25T14:14:17.153Z,1.2
2017-10-25T14:16:18.139Z,1.4
2017-10-25T14:18:17.169Z,1.8
2017-10-25T14:20:17.186Z,1.2
2017-10-25T14:22:17.177Z,1.4
2017-10-25T14:24:17.187Z,1.5
2017-10-25T14:26:17.243Z,2.1
2017-10-25T14:28:17.242Z,1.5
2017-10-25T14:30:17.249Z,1.7
2017-10-25T14:32:17.294Z,1.4
2017-10-25T14:34:17.335Z,1.6
2017-10-25T14:36:17.333Z,1.4
2017-10-25T14:38:17.385Z,1.5
2017-10-25T14:40:17.419Z,1.7
2017-10-25T14:42:17.431Z,1.8
2017-10-25T14:44:17.458Z,1.6
2017-10-25T14:46:17.499Z,1.8
2017-10-25T14:48:17.520Z,2.1
2017-10-25T14:50:17.540Z,1.8
2017-10-25T14:52:17.565Z,1.8
2017-10-25T14:54:17.586Z,2.2
2017-10-25T14:56:17.630Z,1.8
2017-10-25T14:58:17.651Z,1.6
2017-10-25T15:00:17.689Z,2.1
2017-10-25T15:02:17.713Z,1.6
2017-10-25T15:04:17.743Z,1.7
2017-10-25T15:06:17.792Z,1.1
2017-10-25T15:08:16.770Z,1.4
2017-10-25T15:10:17.804Z,1.6
2017-10-25T15:12:16.802Z,1.8
2017-10-25T15:14:16.799Z,1.5
2017-10-25T15:16:17.802Z,1.6
2017-10-25T15:18:16.811Z,1.9
2017-10-25T15:20:16.841Z,1.6
2017-10-25T15:22:16.866Z,1.9
2017-10-25T15:24:16.865Z,1.4
2017-10-25T15:26:17.864Z,1.4
2017-10-25T15:28:16.881Z,1.3
2017-10-25T15:30:16.885Z,1.5
2017-10-25T15:32:16.907Z,1.6
2017-10-25T15:34:16.947Z,1.3
2017-10-25T15:36:16.947Z,1.5
2017-10-25T15:38:16.962Z,1.4
2017-10-25T15:40:17.957Z,1.6
2017-10-25T15:42:16.971Z,1.3
2017-10-25T15:44:17.006Z,1.5
2017-10-25T15:46:17.999Z,1.7
2017-10-25T15:48:17.037Z,1.3
2017-10-25T15:50:17.035Z,1.7
2017-10-25T15:52:17.049Z,1.7
2017-10-25T15:54:17.061Z,1.4
2017-10-25T15:56:17.033Z,1.2
2017-10-25T15:58:17.049Z,1.6
2017-10-25T16:00:17.068Z,1.3
2017-10-25T16:02:17.064Z,1.2
2017-10-25T16:04:17.047Z,1.1
2017-10-25T16:06:18.044Z,1.3
2017-10-25T16:08:17.054Z,1.1
2017-10-25T16:10:18.035Z,1.6
2017-10-25T16:12:17.041Z,2.8
2017-10-25T16:14:17.028Z,2.5
2017-10-25T16:16:16.998Z,3.1
2017-10-25T16:18:16.976Z,1.8
2017-10-25T16:20:16.987Z,2
2017-10-25T16:22:16.956Z,1.6
2017-10-25T16:24:16.959Z,1.6
2017-10-25T16:26:17.944Z,1.9
2017-10-25T16:28:16.916Z,1.5
2017-10-25T16:30:16.902Z,1.7
2017-10-25T16:32:16.866Z,1.5
2017-10-25T16:34:16.893Z,1.4
2017-10-25T16:36:17.867Z,1.4
2017-10-25T16:38:16.852Z,1.9
2017-10-25T16:40:17.869Z,2
2017-10-25T16:42:16.854Z,1.6
2017-10-25T16:44:16.865Z,1.6
2017-10-25T16:46:17.840Z,1.7
2017-10-25T16:48:16.855Z,1.9
2017-10-25T16:50:16.834Z,2.5
2017-10-25T16:52:16.843Z,2.3
2017-10-25T16:54:16.867Z,2
2017-10-25T16:56:17.847Z,1.7
2017-10-25T16:58:16.861Z,1.9
2017-10-25T17:00:16.845Z,1.7
2017-10-25T17:02:16.840Z,1.8
2017-10-25T17:04:16.856Z,1.5
2017-10-25T17:06:17.864Z,1.6
2017-10-25T17:08:16.840Z,1.6
2017-10-25T17:10:17.852Z,2
2017-10-25T17:12:16.871Z,1.5
2017-10-25T17:14:16.859Z,1.9
2017-10-25T17:16:17.848Z,1.7
2017-10-25T17:18:16.834Z,2.1
2017-10-25T17:20:16.807Z,2.3
2017-10-25T17:22:16.792Z,2.1
2017-10-25T17:24:16.784Z,2.2
2017-10-25T17:26:17.780Z,2.3
2017-10-25T17:28:16.766Z,1.9
2017-10-25T17:30:16.745Z,2.3
2017-10-25T17:32:16.757Z,1.6
2017-10-25T17:34:16.734Z,2
2017-10-25T17:36:17.709Z,1.8
2017-10-25T17:38:17.676Z,1.8
2017-10-25T17:40:17.661Z,1.7
2017-10-25T17:42:17.662Z,1.6
2017-10-25T17:44:17.631Z,1.6
2017-10-25T17:46:17.630Z,2.1
2017-10-25T17:48:17.628Z,1.8
2017-10-25T17:50:17.586Z,2
2017-10-25T17:52:17.587Z,1.8
2017-10-25T17:54:17.563Z,2
2017-10-25T17:56:17.562Z,2.2
2017-10-25T17:58:17.536Z,2.3
2017-10-25T18:00:17.522Z,2
2017-10-25T18:02:17.503Z,2.1
2017-10-25T18:04:17.460Z,1.6
2017-10-25T18:06:17.458Z,2.1
2017-10-25T18:08:17.438Z,1.8
2017-10-25T18:10:17.414Z,2.1
2017-10-25T18:12:17.399Z,2.5
2017-10-25T18:14:17.374Z,2.1
2017-10-25T18:16:17.358Z,2.2
2017-10-25T18:18:17.334Z,1.6
2017-10-25T18:20:17.299Z,2.2
2017-10-25T18:22:17.273Z,2.7
2017-10-25T18:24:17.236Z,2.4
2017-10-25T18:26:18.199Z,2.4
2017-10-25T18:28:17.165Z,2.5
2017-10-25T18:30:17.138Z,2.5
2017-10-25T18:32:17.120Z,2.5
2017-10-25T18:34:17.077Z,2.2
2017-10-25T18:36:18.060Z,2.2
2017-10-25T18:38:17.019Z,2.3
2017-10-25T18:40:18.003Z,2.3
2017-10-25T18:42:16.973Z,2.3
2017-10-25T18:44:16.971Z,2.1
2017-10-25T18:46:16.952Z,2.5
2017-10-25T18:48:16.916Z,2.8
2017-10-25T18:50:16.882Z,2.5
2017-10-25T18:52:16.859Z,2.6
2017-10-25T18:54:16.851Z,2.7
2017-10-25T18:56:17.816Z,2.8
2017-10-25T18:58:16.780Z,2.3
2017-10-25T19:00:16.749Z,2.8
2017-10-25T19:02:16.749Z,2.6
2017-10-25T19:04:16.739Z,2.3
2017-10-25T19:06:17.691Z,2.6
2017-10-25T19:08:17.683Z,3.3
2017-10-25T19:10:17.675Z,2.6
2017-10-25T19:12:17.651Z,2.4
2017-10-25T19:14:17.621Z,3.4
2017-10-25T19:16:17.625Z,3.1
2017-10-25T19:18:16.590Z,2.9
2017-10-25T19:20:17.565Z,3.4
2017-10-25T19:22:17.538Z,2.4
2017-10-25T19:24:17.535Z,2.9
2017-10-25T19:26:17.511Z,2.7
2017-10-25T19:28:17.478Z,3
2017-10-25T19:30:17.487Z,3.1
2017-10-25T19:32:17.427Z,3.4
2017-10-25T19:34:17.420Z,2.9
2017-10-25T19:36:17.380Z,2.8
2017-10-25T19:38:17.375Z,2.9
2017-10-25T19:40:17.336Z,2.7
2017-10-25T19:42:17.330Z,3.2
2017-10-25T19:44:17.296Z,3.4
2017-10-25T19:46:17.272Z,2.8
2017-10-25T19:48:17.248Z,2.8
2017-10-25T19:50:17.223Z,2.9
2017-10-25T19:52:17.192Z,3.3
2017-10-25T19:54:17.147Z,2.6
2017-10-25T19:56:18.110Z,3.7
2017-10-25T19:58:17.090Z,3.4
2017-10-25T20:00:17.067Z,4.1
2017-10-25T20:02:17.024Z,4.2
2017-10-25T20:04:17.002Z,3.6
2017-10-25T20:06:17.981Z,4.4
2017-10-25T20:08:16.943Z,4.1
2017-10-25T20:10:17.920Z,4.1
2017-10-25T20:12:16.897Z,4.1
2017-10-25T20:14:16.871Z,4.8
2017-10-25T20:16:17.839Z,4.2
2017-10-25T20:18:16.826Z,4.4
2017-10-25T20:20:16.788Z,4.2
2017-10-25T20:22:16.769Z,4.5
2017-10-25T20:24:16.758Z,4.1
2017-10-25T20:26:17.713Z,4
2017-10-25T20:28:16.681Z,3.4
2017-10-25T20:30:17.635Z,3.9
2017-10-25T20:32:17.602Z,3.9
2017-10-25T20:34:17.589Z,4.1
2017-10-25T20:36:17.530Z,4.9
2017-10-25T20:38:17.497Z,4
2017-10-25T20:40:17.461Z,3.8
2017-10-25T20:42:17.412Z,4.4
2017-10-25T20:44:17.368Z,3.8
2017-10-25T20:46:18.352Z,3.8
2017-10-25T20:48:17.320Z,3.5
2017-10-25T20:50:17.288Z,3.3
2017-10-25T20:52:17.237Z,3.1
2017-10-25T20:54:17.207Z,2.4
2017-10-25T20:56:18.162Z,2.8
2017-10-25T20:58:17.131Z,2.5
2017-10-25T21:00:17.106Z,2.4
2017-10-25T21:02:17.056Z,2.2
2017-10-25T21:04:17.019Z,2.1
2017-10-25T21:06:17.965Z,2
2017-10-25T21:08:16.956Z,1.5
2017-10-25T21:10:17.891Z,1.8
2017-10-25T21:12:16.861Z,1.5
2017-10-25T21:14:16.807Z,1.2
2017-10-25T21:16:16.758Z,1.4
2017-10-25T21:18:16.720Z,1.4
2017-10-25T21:20:17.673Z,1.1
2017-10-25T21:22:17.615Z,1.2
2017-10-25T21:24:17.593Z,1.3
2017-10-25T21:26:17.509Z,1.3
2017-10-25T21:28:17.488Z,1.1
2017-10-25T21:30:17.411Z,1
2017-10-25T21:32:17.361Z,1.8
2017-10-25T21:34:17.300Z,1.7
2017-10-25T21:36:18.235Z,1.6
2017-10-25T21:38:17.184Z,2.5
2017-10-25T21:40:18.145Z,2.6
2017-10-25T21:42:17.087Z,2.9
2017-10-25T21:44:17.045Z,2.7
2017-10-25T21:46:17.012Z,2.8
2017-10-25T21:48:16.937Z,3.1
2017-10-25T21:50:16.889Z,2.7
2017-10-25T21:52:16.850Z,2.5
2017-10-25T21:54:16.810Z,2.9
2017-10-25T21:56:17.778Z,2.7
2017-10-25T21:58:16.719Z,3.4
2017-10-25T22:00:17.677Z,2.1
2017-10-25T22:02:17.626Z,2.5
2017-10-25T22:04:17.592Z,2.2
2017-10-25T22:06:17.558Z,2.4
2017-10-25T22:08:17.510Z,2.4
2017-10-25T22:10:17.466Z,1.9
2017-10-25T22:12:17.443Z,2.1
2017-10-25T22:14:17.381Z,1.5
2017-10-25T22:16:18.340Z,1.7
2017-10-25T22:18:17.299Z,1.8
2017-10-25T22:20:17.254Z,1.6
2017-10-25T22:22:17.189Z,1.8
2017-10-25T22:24:17.154Z,1.9
2017-10-25T22:26:17.122Z,1.6
2017-10-25T22:28:17.106Z,1.4
2017-10-25T22:30:17.044Z,1.8
2017-10-25T22:32:17.006Z,2
2017-10-25T22:34:16.931Z,1.8
2017-10-25T22:36:17.898Z,1.8
2017-10-25T22:38:16.861Z,2.1
2017-10-25T22:40:17.817Z,1.9
2017-10-25T22:42:16.773Z,1.9
2017-10-25T22:44:16.739Z,2.2
2017-10-25T22:46:17.674Z,2.7
2017-10-25T22:48:17.640Z,2.1
2017-10-25T22:50:17.603Z,2.7
2017-10-25T22:52:17.555Z,2.7
2017-10-25T22:54:17.513Z,2.3
2017-10-25T22:56:17.493Z,2.3
2017-10-25T22:58:17.462Z,2.3
2017-10-25T23:00:17.434Z,2.2
2017-10-25T23:02:17.381Z,2.4
2017-10-25T23:04:17.318Z,2.1
2017-10-25T23:06:18.271Z,2.5
2017-10-25T23:08:17.246Z,2.2
2017-10-25T23:10:17.210Z,2.9
2017-10-25T23:12:17.158Z,3
2017-10-25T23:14:17.140Z,2.3
2017-10-25T23:16:18.124Z,2.5
2017-10-25T23:18:17.049Z,1.6
2017-10-25T23:20:17.028Z,1.6
2017-10-25T23:22:16.986Z,1.7
2017-10-25T23:24:16.953Z,1.6
2017-10-25T23:26:16.886Z,1.9
2017-10-25T23:28:16.837Z,1.2
2017-10-25T23:30:16.798Z,1.6
2017-10-25T23:32:16.743Z,2.4
2017-10-25T23:34:16.678Z,2.2
2017-10-25T23:36:17.630Z,2.1
2017-10-25T23:38:17.554Z,1.9
2017-10-25T23:40:17.494Z,1.6
2017-10-25T23:42:17.412Z,1.5
2017-10-25T23:44:17.345Z,1.1
2017-10-25T23:46:18.287Z,1.4
2017-10-25T23:48:17.246Z,1.3
2017-10-25T23:50:17.160Z,0.9
2017-10-25T23:52:17.087Z,1.3
2017-10-25T23:54:17.054Z,2
2017-10-25T23:56:16.980Z,1.3
2017-10-25T23:58:16.887Z,1.2
